createdAt,value
2023-03-12T00:01:10.447Z,101234.72
2023-03-12T00:03:36.867Z,101233.03
2023-03-12T00:06:10.576Z,101227.84
2023-03-12T00:08:37.595Z,101218.38
2023-03-12T00:11:09.447Z,101216.56
2023-03-12T00:13:35.930Z,101219.19
2023-03-12T00:16:13.877Z,101215.69
2023-03-12T00:18:41.792Z,101211.34
2023-03-12T00:21:09.326Z,101208.81
2023-03-12T00:23:36.727Z,101215.69
2023-03-12T00:26:14.301Z,101214.75
2023-03-12T00:28:41.356Z,101202.66
2023-03-12T00:31:17.947Z,101201.00
2023-03-12T00:33:45.224Z,101199.31
2023-03-12T00:36:12.433Z,101199.25
2023-03-12T00:38:38.883Z,101198.31
2023-03-12T00:41:05.279Z,101206.00
2023-03-12T00:43:31.776Z,101208.53
2023-03-12T00:45:58.244Z,101207.66
2023-03-12T00:48:25.351Z,101203.31
2023-03-12T00:50:51.860Z,101199.84
2023-03-12T00:53:18.295Z,101203.22
2023-03-12T00:55:44.766Z,101192.91
2023-03-12T00:58:11.186Z,101201.53
2023-03-12T01:00:37.650Z,101191.22
2023-03-12T01:03:04.313Z,101188.66
2023-03-12T01:05:33.474Z,101197.28
2023-03-12T01:08:01.181Z,101190.50
2023-03-12T01:10:27.638Z,101178.56
2023-03-12T01:12:54.022Z,101163.25
2023-03-12T01:15:20.504Z,101160.72
2023-03-12T01:17:46.995Z,101159.03
2023-03-12T01:20:13.862Z,101160.72
2023-03-12T01:22:40.340Z,101160.72
2023-03-12T01:25:07.290Z,101158.94
2023-03-12T01:27:33.690Z,101162.31
2023-03-12T01:30:00.334Z,101156.28
2023-03-12T01:32:26.813Z,101164.00
2023-03-12T01:34:53.562Z,101163.97
2023-03-12T01:37:19.968Z,101170.75
2023-03-12T01:39:46.441Z,101167.25
2023-03-12T01:42:12.870Z,101168.09
2023-03-12T01:44:58.187Z,101162.03
2023-03-12T01:47:25.868Z,101145.72
2023-03-12T01:49:55.113Z,101150.84
2023-03-12T01:52:29.251Z,101151.66
2023-03-12T01:55:04.702Z,101151.66
2023-03-12T01:57:43.536Z,101147.38
2023-03-12T02:00:20.059Z,101138.81
2023-03-12T02:02:49.381Z,101134.41
2023-03-12T02:05:25.238Z,101138.66
2023-03-12T02:07:51.699Z,101132.56
2023-03-12T02:10:18.401Z,101124.84
2023-03-12T02:12:45.091Z,101118.84
2023-03-12T02:15:11.606Z,101117.97
2023-03-12T02:17:39.440Z,101118.81
2023-03-12T02:20:44.874Z,101111.91
2023-03-12T02:23:56.041Z,101104.94
2023-03-12T02:26:24.492Z,101099.72
2023-03-12T02:28:51.022Z,101096.28
2023-03-12T02:31:22.740Z,101100.59
2023-03-12T02:33:49.173Z,101093.69
2023-03-12T02:36:15.665Z,101089.38
2023-03-12T02:38:49.674Z,101084.22
2023-03-12T02:41:34.080Z,101082.50
2023-03-12T02:44:13.302Z,101079.03
2023-03-12T02:46:44.564Z,101076.41
2023-03-12T02:49:13.210Z,101074.66
2023-03-12T02:51:41.431Z,101070.34
2023-03-12T02:54:08.518Z,101071.19
2023-03-12T02:56:35.476Z,101060.84
2023-03-12T02:59:04.388Z,101052.25
2023-03-12T03:01:34.165Z,101056.47
2023-03-12T03:04:02.781Z,101052.16
2023-03-12T03:06:29.929Z,101046.16
2023-03-12T03:08:56.496Z,101044.53
2023-03-12T03:11:24.656Z,101035.97
2023-03-12T03:13:54.837Z,101033.34
2023-03-12T03:16:22.204Z,101034.13
2023-03-12T03:18:48.657Z,101031.50
2023-03-12T03:21:18.970Z,101034.06
2023-03-12T03:23:47.442Z,101033.22
2023-03-12T03:26:14.256Z,101032.28
2023-03-12T03:31:07.662Z,101013.38
2023-03-12T03:33:36.373Z,101009.09
2023-03-12T03:36:04.466Z,101004.78
2023-03-12T03:38:32.659Z,101003.88
2023-03-12T03:40:59.136Z,100996.16
2023-03-12T03:43:25.919Z,101000.44
2023-03-12T03:46:00.917Z,100993.56
2023-03-12T03:48:27.921Z,100984.94
2023-03-12T03:50:54.404Z,100978.88
2023-03-12T03:53:21.202Z,100977.16
2023-03-12T03:55:48.080Z,100968.50
2023-03-12T03:58:14.553Z,100963.34
2023-03-12T04:00:40.957Z,100954.66
2023-03-12T04:03:07.783Z,100961.56
2023-03-12T04:05:34.282Z,100971.03
2023-03-12T04:08:03.101Z,100977.88
2023-03-12T04:10:30.300Z,100983.84
2023-03-12T04:12:57.223Z,100975.22
2023-03-12T04:15:24.455Z,100976.06
2023-03-12T04:17:51.083Z,100976.06
2023-03-12T04:20:17.740Z,100978.53
2023-03-12T04:22:44.241Z,100976.72
2023-03-12T04:25:11.374Z,100964.56
2023-03-12T04:27:37.785Z,100961.00
2023-03-12T04:30:05.289Z,100960.94
2023-03-12T04:32:31.785Z,100955.75
2023-03-12T04:34:58.306Z,100950.59
2023-03-12T04:37:24.763Z,100955.66
2023-03-12T04:39:51.249Z,100949.63
2023-03-12T04:42:17.672Z,100948.75
2023-03-12T04:44:44.137Z,100935.00
2023-03-12T04:47:10.592Z,100928.13
2023-03-12T04:49:39.063Z,100933.28
2023-03-12T04:52:05.949Z,100921.28
2023-03-12T04:54:33.127Z,100916.19
2023-03-12T04:56:59.586Z,100907.63
2023-03-12T04:59:26.050Z,100899.06
2023-03-12T05:01:52.653Z,100889.63
2023-03-12T05:04:19.118Z,100881.91
2023-03-12T05:06:45.613Z,100881.06
2023-03-12T05:09:12.059Z,100876.84
2023-03-12T05:11:39.809Z,100866.53
2023-03-12T05:14:06.636Z,100866.56
2023-03-12T05:16:33.189Z,100870.88
2023-03-12T05:18:59.775Z,100869.16
2023-03-12T05:21:26.215Z,100860.53
2023-03-12T05:23:52.706Z,100849.38
2023-03-12T05:26:26.087Z,100860.53
2023-03-12T05:28:52.858Z,100861.38
2023-03-12T05:31:20.108Z,100867.41
2023-03-12T05:33:47.296Z,100862.25
2023-03-12T05:36:14.469Z,100860.44
2023-03-12T05:38:42.676Z,100853.56
2023-03-12T05:41:16.939Z,100856.13
2023-03-12T05:43:43.380Z,100860.44
2023-03-12T05:46:10.344Z,100851.81
2023-03-12T05:48:36.870Z,100850.03
2023-03-12T05:51:03.440Z,100849.09
2023-03-12T05:53:29.857Z,100838.75
2023-03-12T05:56:03.574Z,100837.84
2023-03-12T05:58:30.599Z,100827.47
2023-03-12T06:00:57.308Z,100830.88
2023-03-12T06:03:23.841Z,100838.50
2023-03-12T06:05:50.737Z,100841.06
2023-03-12T06:08:17.157Z,100824.69
2023-03-12T06:10:43.616Z,100840.94
2023-03-12T06:13:10.881Z,100841.75
2023-03-12T06:15:37.393Z,100832.28
2023-03-12T06:18:04.018Z,100839.09
2023-03-12T06:20:30.493Z,100843.41
2023-03-12T06:22:56.932Z,100843.34
2023-03-12T06:25:23.383Z,100837.31
2023-03-12T06:27:49.773Z,100845.03
2023-03-12T06:30:16.581Z,100839.88
2023-03-12T06:32:43.146Z,100836.47
2023-03-12T06:35:09.938Z,100825.28
2023-03-12T06:37:36.561Z,100833.03
2023-03-12T06:40:04.851Z,100834.78
2023-03-12T06:42:32.275Z,100823.63
2023-03-12T06:44:58.735Z,100817.53
2023-03-12T06:47:25.143Z,100828.66
2023-03-12T06:49:51.599Z,100819.22
2023-03-12T06:52:21.037Z,100816.72
2023-03-12T06:54:47.603Z,100820.19
2023-03-12T06:57:16.602Z,100804.75
2023-03-12T06:59:43.321Z,100800.41
2023-03-12T07:02:11.529Z,100799.56
2023-03-12T07:04:38.201Z,100795.25
2023-03-12T07:07:04.796Z,100792.69
2023-03-12T07:09:31.264Z,100784.84
2023-03-12T07:11:57.816Z,100786.53
2023-03-12T07:14:24.277Z,100783.06
2023-03-12T07:16:50.832Z,100766.66
2023-03-12T07:19:19.355Z,100764.00
2023-03-12T07:21:45.780Z,100760.50
2023-03-12T07:24:12.214Z,100764.72
2023-03-12T07:26:38.620Z,100776.75
2023-03-12T07:29:05.177Z,100771.50
2023-03-12T07:31:31.708Z,100774.09
2023-03-12T07:33:58.233Z,100768.94
2023-03-12T07:36:24.917Z,100779.16
2023-03-12T07:38:51.429Z,100782.56
2023-03-12T07:41:17.928Z,100789.41
2023-03-12T07:43:44.562Z,100790.22
2023-03-12T07:46:11.310Z,100813.38
2023-03-12T07:48:38.581Z,100806.50
2023-03-12T07:51:05.840Z,100798.75
2023-03-12T07:53:32.442Z,100811.53
2023-03-12T07:55:59.183Z,100814.97
2023-03-12T07:58:25.835Z,100816.56
2023-03-12T08:00:55.370Z,100820.81
2023-03-12T08:03:21.993Z,100817.31
2023-03-12T08:06:02.793Z,100825.84
2023-03-12T08:08:31.227Z,100805.09
2023-03-12T08:10:59.478Z,100809.28
2023-03-12T08:13:26.530Z,100796.28
2023-03-12T08:15:54.083Z,100791.09
2023-03-12T08:18:21.025Z,100789.25
2023-03-12T08:20:53.764Z,100789.97
2023-03-12T08:23:21.488Z,100785.59
2023-03-12T08:25:49.791Z,100787.25
2023-03-12T08:28:17.307Z,100795.78
2023-03-12T08:30:48.871Z,100800.03
2023-03-12T08:33:15.801Z,100794.78
2023-03-12T08:35:42.326Z,100792.91
2023-03-12T08:38:09.010Z,100790.97
2023-03-12T08:40:35.668Z,100791.63
2023-03-12T08:43:02.172Z,100792.44
2023-03-12T08:45:28.753Z,100783.69
2023-03-12T08:47:55.205Z,100790.47
2023-03-12T08:50:22.866Z,100797.31
2023-03-12T08:52:49.301Z,100791.16
2023-03-12T08:55:18.866Z,100783.22
2023-03-12T08:57:45.516Z,100798.44
2023-03-12T09:00:15.038Z,100805.19
2023-03-12T09:02:44.907Z,100802.47
2023-03-12T09:05:11.997Z,100796.16
2023-03-12T09:07:38.861Z,100792.56
2023-03-12T09:10:06.257Z,100801.81
2023-03-12T09:12:32.811Z,100798.94
2023-03-12T09:15:04.288Z,100787.38
2023-03-12T09:17:31.204Z,100787.81
2023-03-12T09:19:57.745Z,100789.00
2023-03-12T09:22:24.352Z,100774.56
2023-03-12T09:24:50.890Z,100771.81
2023-03-12T09:27:17.381Z,100781.28
2023-03-12T09:29:58.743Z,100776.81
2023-03-12T09:32:27.388Z,100770.59
2023-03-12T09:34:54.380Z,100763.94
2023-03-12T09:37:23.752Z,100773.50
2023-03-12T09:39:51.560Z,100782.81
2023-03-12T09:42:30.462Z,100770.97
2023-03-12T09:45:00.461Z,100778.41
2023-03-12T09:47:31.762Z,100780.03
2023-03-12T09:50:31.707Z,100784.06
2023-03-12T09:53:04.609Z,100785.03
2023-03-12T09:55:40.276Z,100783.88
2023-03-12T10:01:37.390Z,100784.94
2023-03-12T10:04:03.782Z,100788.97
2023-03-12T10:06:36.610Z,100790.50
2023-03-12T10:09:08.155Z,100787.31
2023-03-12T10:11:37.468Z,100788.50
2023-03-12T10:14:23.894Z,100789.09
2023-03-12T10:16:59.210Z,100787.41
2023-03-12T10:19:39.822Z,100791.69
2023-03-12T10:22:30.750Z,100786.56
2023-03-12T10:25:31.936Z,100787.13
2023-03-12T10:28:05.666Z,100787.19
2023-03-12T10:30:33.188Z,100785.13
2023-03-12T10:33:06.906Z,100773.47
2023-03-12T10:35:33.371Z,100787.16
2023-03-12T10:38:01.770Z,100784.28
2023-03-12T10:40:30.733Z,100792.75
2023-03-12T10:42:57.627Z,100787.09
2023-03-12T10:45:58.213Z,100786.69
2023-03-12T10:48:25.873Z,100785.91
2023-03-12T10:51:21.560Z,100782.09
2023-03-12T10:53:48.058Z,100772.31
2023-03-12T10:56:19.400Z,100774.06
2023-03-12T10:58:48.954Z,100774.56
2023-03-12T11:01:15.499Z,100789.28
2023-03-12T11:03:43.921Z,100777.84
2023-03-12T11:06:24.642Z,100771.22
2023-03-12T11:09:19.616Z,100779.47
2023-03-12T11:11:48.165Z,100787.38
2023-03-12T11:14:20.527Z,100774.13
2023-03-12T11:16:47.569Z,100769.69
2023-03-12T11:19:26.417Z,100773.81
2023-03-12T11:22:01.674Z,100794.41
2023-03-12T11:24:28.881Z,100791.34
2023-03-12T11:27:26.038Z,100795.31
2023-03-12T11:29:54.286Z,100795.25
2023-03-12T11:32:37.414Z,100809.91
2023-03-12T11:35:10.116Z,100791.97
2023-03-12T11:38:10.511Z,100797.69
2023-03-12T11:41:09.894Z,100789.56
2023-03-12T11:43:49.141Z,100801.66
2023-03-12T11:46:37.394Z,100788.03
2023-03-12T11:49:09.878Z,100796.84
2023-03-12T11:52:13.845Z,100795.09
2023-03-12T11:54:54.859Z,100786.28
2023-03-12T11:57:27.318Z,100787.13
2023-03-12T12:00:14.570Z,100783.44
2023-03-12T12:02:47.010Z,100766.66
2023-03-12T12:05:27.653Z,100760.94
2023-03-12T12:08:35.769Z,100761.53
2023-03-12T12:11:08.106Z,100765.09
2023-03-12T12:13:52.617Z,100752.41
2023-03-12T12:16:56.696Z,100757.78
2023-03-12T12:19:37.336Z,100753.44
2023-03-12T12:22:12.446Z,100750.88
2023-03-12T12:25:12.590Z,100764.84
2023-03-12T12:27:54.966Z,100755.69
2023-03-12T12:30:50.758Z,100743.66
2023-03-12T12:33:40.763Z,100739.44
2023-03-12T12:36:10.254Z,100740.97
2023-03-12T12:38:42.368Z,100733.75
2023-03-12T12:41:17.918Z,100731.44
2023-03-12T12:43:49.467Z,100738.72
2023-03-12T12:46:19.906Z,100749.16
2023-03-12T12:49:10.886Z,100753.81
2023-03-12T12:51:43.636Z,100737.22
2023-03-12T12:54:30.575Z,100747.66
2023-03-12T12:57:07.358Z,100743.88
2023-03-12T12:59:40.501Z,100722.00
2023-03-12T13:02:30.087Z,100718.88
2023-03-12T13:04:58.850Z,100724.00
2023-03-12T13:07:27.713Z,100722.22
2023-03-12T13:09:56.953Z,100715.97
2023-03-12T13:12:47.591Z,100708.44
2023-03-12T13:15:29.410Z,100710.59
2023-03-12T13:17:55.837Z,100707.50
2023-03-12T13:20:28.877Z,100720.91
2023-03-12T13:23:21.945Z,100718.22
2023-03-12T13:26:17.416Z,100711.28
2023-03-12T13:28:56.788Z,100711.03
2023-03-12T13:31:29.209Z,100712.59
2023-03-12T13:33:59.811Z,100714.56
2023-03-12T13:36:28.587Z,100703.47
2023-03-12T13:39:07.596Z,100715.69
2023-03-12T13:41:38.743Z,100713.25
2023-03-12T13:44:23.496Z,100715.03
2023-03-12T13:47:03.744Z,100720.72
2023-03-12T13:49:43.329Z,100736.44
2023-03-12T13:52:34.282Z,100738.31
2023-03-12T13:55:05.734Z,100729.06
2023-03-12T13:57:40.474Z,100724.28
2023-03-12T14:00:21.090Z,100722.16
2023-03-12T14:02:54.912Z,100723.41
2023-03-12T14:05:21.906Z,100721.81
2023-03-12T14:08:30.982Z,100719.47
2023-03-12T14:11:20.461Z,100723.84
2023-03-12T14:14:07.943Z,100729.38
2023-03-12T14:16:43.082Z,100735.88
2023-03-12T14:19:14.176Z,100733.66
2023-03-12T14:21:44.105Z,100728.91
2023-03-12T14:24:20.152Z,100737.44
2023-03-12T14:26:47.158Z,100751.66
2023-03-12T14:29:38.945Z,100757.69
2023-03-12T14:32:20.505Z,100757.69
2023-03-12T14:34:53.727Z,100763.94
2023-03-12T14:37:41.181Z,100768.69
2023-03-12T14:40:20.272Z,100765.97
2023-03-12T14:42:47.425Z,100765.59
2023-03-12T14:45:18.689Z,100766.25
2023-03-12T14:47:48.126Z,100754.13
2023-03-12T14:50:20.352Z,100758.22
2023-03-12T14:52:46.977Z,100757.84
2023-03-12T14:55:18.303Z,100760.34
2023-03-12T14:57:45.703Z,100764.75
2023-03-12T15:00:26.551Z,100765.69
2023-03-12T15:02:56.837Z,100764.94
2023-03-12T15:05:23.902Z,100759.81
2023-03-12T15:07:55.853Z,100761.69
2023-03-12T15:10:25.638Z,100768.31
2023-03-12T15:12:55.319Z,100764.31
2023-03-12T15:15:36.069Z,100752.38
2023-03-12T15:18:11.553Z,100763.47
2023-03-12T15:20:38.143Z,100759.19
2023-03-12T15:23:06.558Z,100756.34
2023-03-12T15:25:34.246Z,100752.16
2023-03-12T15:28:25.554Z,100752.38
2023-03-12T15:31:16.598Z,100746.50
2023-03-12T15:33:44.434Z,100745.84
2023-03-12T15:36:17.474Z,100739.75
2023-03-12T15:38:57.693Z,100743.41
2023-03-12T15:41:36.785Z,100745.38
2023-03-12T15:44:03.374Z,100739.09
2023-03-12T15:46:29.953Z,100733.78
2023-03-12T15:48:58.974Z,100744.97
2023-03-12T15:51:31.448Z,100754.78
2023-03-12T15:54:17.216Z,100729.25
2023-03-12T15:56:43.953Z,100728.88
2023-03-12T15:59:16.684Z,100736.16
2023-03-12T16:01:51.338Z,100739.81
2023-03-12T16:04:17.875Z,100733.72
2023-03-12T16:06:48.177Z,100738.13
2023-03-12T16:09:27.299Z,100736.44
2023-03-12T16:11:55.472Z,100730.47
2023-03-12T16:14:30.669Z,100734.94
2023-03-12T16:16:57.474Z,100721.97
2023-03-12T16:19:27.827Z,100718.50
2023-03-12T16:21:54.300Z,100717.84
2023-03-12T16:24:20.792Z,100719.81
2023-03-12T16:26:55.474Z,100718.16
2023-03-12T16:29:24.471Z,100718.34
2023-03-12T16:31:56.695Z,100720.31
2023-03-12T16:34:23.200Z,100727.31
2023-03-12T16:36:49.900Z,100717.97
2023-03-12T16:39:18.469Z,100716.28
2023-03-12T16:41:45.393Z,100709.38
2023-03-12T16:44:17.803Z,100712.09
2023-03-12T16:46:44.977Z,100701.25
2023-03-12T16:49:16.454Z,100697.06
2023-03-12T16:51:43.140Z,100698.09
2023-03-12T16:54:11.970Z,100720.00
2023-03-12T16:56:42.698Z,100712.34
2023-03-12T16:59:20.834Z,100713.31
2023-03-12T17:01:47.381Z,100723.75
2023-03-12T17:04:13.966Z,100720.19
2023-03-12T17:06:40.470Z,100714.31
2023-03-12T17:09:08.432Z,100721.50
2023-03-12T17:11:37.788Z,100735.50
2023-03-12T17:14:15.793Z,100731.00
2023-03-12T17:16:42.250Z,100725.78
2023-03-12T17:19:08.774Z,100721.56
2023-03-12T17:21:35.508Z,100742.66
2023-03-12T17:24:01.980Z,100742.75
2023-03-12T17:26:28.490Z,100739.97
2023-03-12T17:28:54.961Z,100719.34
2023-03-12T17:31:21.506Z,100729.13
2023-03-12T17:33:48.014Z,100722.56
2023-03-12T17:36:14.459Z,100726.88
2023-03-12T17:38:40.927Z,100733.13
2023-03-12T17:41:23.472Z,100735.25
2023-03-12T17:43:52.236Z,100743.06
2023-03-12T17:46:18.806Z,100739.88
2023-03-12T17:48:45.290Z,100740.09
2023-03-12T17:51:11.722Z,100749.66
2023-03-12T17:53:41.897Z,100749.81
2023-03-12T17:56:09.156Z,100754.97
2023-03-12T17:58:35.605Z,100747.16
2023-03-12T18:01:02.178Z,100748.81
2023-03-12T18:03:28.737Z,100745.31
2023-03-12T18:05:55.740Z,100740.81
2023-03-12T18:08:22.236Z,100743.41
2023-03-12T18:10:49.041Z,100746.78
2023-03-12T18:13:15.451Z,100720.88
2023-03-12T18:15:41.912Z,100746.22
2023-03-12T18:18:08.625Z,100741.16
2023-03-12T18:20:39.376Z,100741.25
2023-03-12T18:23:06.850Z,100741.09
2023-03-12T18:25:33.796Z,100747.16
2023-03-12T18:28:00.306Z,100740.16
2023-03-12T18:30:28.244Z,100741.00
2023-03-12T18:32:54.869Z,100743.59
2023-03-12T18:35:22.643Z,100741.81
2023-03-12T18:37:53.020Z,100748.66
2023-03-12T18:40:19.557Z,100740.63
2023-03-12T18:42:45.999Z,100745.69
2023-03-12T18:45:12.712Z,100741.31
2023-03-12T18:47:39.660Z,100735.31
2023-03-12T18:50:07.839Z,100737.84
2023-03-12T18:52:34.667Z,100729.84
2023-03-12T18:55:01.669Z,100738.63
2023-03-12T18:57:28.252Z,100743.91
2023-03-12T18:59:54.683Z,100727.41
2023-03-12T19:02:21.130Z,100735.25
2023-03-12T19:04:47.638Z,100731.69
2023-03-12T19:07:14.250Z,100728.25
2023-03-12T19:09:40.750Z,100724.03
2023-03-12T19:12:07.362Z,100725.91
2023-03-12T19:14:33.888Z,100721.59
2023-03-12T19:17:00.398Z,100724.22
2023-03-12T19:19:26.901Z,100724.22
2023-03-12T19:21:53.533Z,100730.97
2023-03-12T19:24:19.977Z,100721.34
2023-03-12T19:26:46.500Z,100718.63
2023-03-12T19:29:15.158Z,100703.16
2023-03-12T19:31:41.938Z,100702.31
2023-03-12T19:34:08.816Z,100705.22
2023-03-12T19:36:35.427Z,100706.88
2023-03-12T19:39:04.382Z,100697.38
2023-03-12T19:41:33.244Z,100700.06
2023-03-12T19:43:59.662Z,100700.06
2023-03-12T19:46:26.071Z,100700.00
2023-03-12T19:48:53.406Z,100706.88
2023-03-12T19:51:19.832Z,100698.88
2023-03-12T19:53:46.296Z,100697.22
2023-03-12T19:56:12.700Z,100702.50
2023-03-12T19:58:39.134Z,100693.09
2023-03-12T20:01:05.710Z,100699.22
2023-03-12T20:03:32.923Z,100689.91
2023-03-12T20:05:59.894Z,100691.75
2023-03-12T20:08:32.714Z,100680.59
2023-03-12T20:11:06.746Z,100678.88
2023-03-12T20:13:33.993Z,100679.81
2023-03-12T20:16:01.382Z,100669.38
2023-03-12T20:18:27.927Z,100666.94
2023-03-12T20:20:54.334Z,100666.22
2023-03-12T20:23:20.779Z,100664.34
2023-03-12T20:25:50.813Z,100647.19
2023-03-12T20:28:17.848Z,100648.19
2023-03-12T20:30:44.754Z,100643.81
2023-03-12T20:33:11.259Z,100638.59
2023-03-12T20:35:37.882Z,100641.31
2023-03-12T20:38:04.533Z,100636.00
2023-03-12T20:40:31.180Z,100632.53
2023-03-12T20:42:57.669Z,100634.44
2023-03-12T20:45:24.158Z,100632.72
2023-03-12T20:47:50.722Z,100623.16
2023-03-12T20:50:17.381Z,100625.75
2023-03-12T20:52:44.938Z,100617.25
2023-03-12T20:55:11.491Z,100611.19
2023-03-12T20:57:37.918Z,100609.34
2023-03-12T21:00:05.523Z,100608.34
2023-03-12T21:02:32.101Z,100609.06
2023-03-12T21:04:58.560Z,100603.94
2023-03-12T21:07:24.975Z,100598.72
2023-03-12T21:09:51.679Z,100610.00
2023-03-12T21:12:18.078Z,100607.41
2023-03-12T21:14:44.514Z,100601.41
2023-03-12T21:17:13.606Z,100592.75
2023-03-12T21:19:43.838Z,100584.94
2023-03-12T21:22:10.295Z,100582.31
2023-03-12T21:24:36.879Z,100574.41
2023-03-12T21:27:03.704Z,100564.06
2023-03-12T21:29:30.185Z,100554.38
2023-03-12T21:31:57.379Z,100555.50
2023-03-12T21:34:23.946Z,100557.16
2023-03-12T21:36:50.433Z,100553.44
2023-03-12T21:39:17.552Z,100548.22
2023-03-12T21:41:44.045Z,100550.94
2023-03-12T21:44:10.474Z,100535.47
2023-03-12T21:46:37.276Z,100528.53
2023-03-12T21:49:03.939Z,100520.84
2023-03-12T21:51:30.550Z,100521.78
2023-03-12T21:53:58.291Z,100512.25
2023-03-12T21:56:28.050Z,100505.34
2023-03-12T21:58:56.726Z,100502.00
2023-03-12T22:01:23.500Z,100499.59
2023-03-12T22:03:50.296Z,100492.69
2023-03-12T22:06:16.838Z,100488.47
2023-03-12T22:08:44.573Z,100474.78
2023-03-12T22:11:11.116Z,100467.91
2023-03-12T22:13:37.917Z,100461.16
2023-03-12T22:16:08.058Z,100457.72
2023-03-12T22:18:38.987Z,100454.38
2023-03-12T22:21:07.337Z,100448.31
2023-03-12T22:23:36.040Z,100450.75
2023-03-12T22:26:04.557Z,100439.38
2023-03-12T22:28:31.591Z,100441.00
2023-03-12T22:31:03.878Z,100437.56
2023-03-12T22:33:30.713Z,100431.41
2023-03-12T22:35:57.583Z,100423.56
2023-03-12T22:38:24.877Z,100421.78
2023-03-12T22:40:53.702Z,100420.97
2023-03-12T22:43:21.645Z,100419.28
2023-03-12T22:45:52.956Z,100410.69
2023-03-12T22:48:19.436Z,100413.28
2023-03-12T22:50:53.474Z,100409.84
2023-03-12T22:53:19.978Z,100406.25
2023-03-12T22:55:46.455Z,100405.56
2023-03-12T22:58:13.057Z,100405.75
2023-03-12T23:00:39.506Z,100397.09
2023-03-12T23:03:05.940Z,100398.78
2023-03-12T23:05:32.424Z,100394.50
2023-03-12T23:07:58.935Z,100383.13
2023-03-12T23:10:25.367Z,100371.09
2023-03-12T23:12:51.798Z,100377.06
2023-03-12T23:15:19.798Z,100372.88
2023-03-12T23:17:46.356Z,100370.28
2023-03-12T23:20:13.499Z,100366.84
2023-03-12T23:22:39.978Z,100354.81
2023-03-12T23:25:06.936Z,100350.63
2023-03-12T23:27:33.884Z,100344.56
2023-03-12T23:30:00.292Z,100330.81
2023-03-12T23:32:26.782Z,100320.56
2023-03-12T23:34:53.335Z,100312.00
2023-03-12T23:37:19.816Z,100301.56
2023-03-12T23:39:54.582Z,100298.19
2023-03-12T23:42:21.636Z,100291.31
2023-03-12T23:44:48.078Z,100279.97
2023-03-12T23:47:14.565Z,100271.22
2023-03-12T23:49:41.072Z,100262.66
2023-03-12T23:52:07.585Z,100248.91
2023-03-12T23:54:34.148Z,100242.81
2023-03-12T23:57:00.626Z,100246.28
2023-03-12T23:59:27.068Z,100241.91
